createdAt,value
2016-12-11T10:58:39.099Z,26464
2016-12-11T10:59:50.267Z,26720
2016-12-11T11:01:01.442Z,22304
2016-12-11T11:02:12.573Z,19392
2016-12-11T11:03:23.755Z,25216
2016-12-11T11:04:34.899Z,28288
2016-12-11T11:05:46.079Z,27040
2016-12-11T11:06:57.230Z,17252
2016-12-11T11:08:08.941Z,18432
2016-12-11T11:09:20.073Z,20640
2016-12-11T11:10:31.259Z,24000
2016-12-11T11:11:42.430Z,21024
2016-12-11T11:12:53.601Z,15140
2016-12-11T11:14:05.309Z,13096
2016-12-11T11:15:16.455Z,18304
2016-12-11T11:16:28.141Z,18080
2016-12-11T11:17:39.295Z,18816
2016-12-11T11:18:50.424Z,19776
2016-12-11T11:20:01.568Z,21536
2016-12-11T11:21:12.722Z,22720
2016-12-11T11:22:23.920Z,28064
2016-12-11T11:23:35.068Z,23424
2016-12-11T11:24:46.216Z,19712
2016-12-11T11:25:57.369Z,25120
2016-12-11T11:27:09.644Z,30752
2016-12-11T11:28:20.777Z,30720
2016-12-11T11:29:31.910Z,34624
2016-12-11T11:30:43.052Z,31328
2016-12-11T11:31:54.185Z,44896
2016-12-11T11:33:05.357Z,47072
2016-12-11T11:34:17.076Z,47328
2016-12-11T11:35:28.277Z,42208
2016-12-11T11:36:39.417Z,43360
2016-12-11T11:37:50.595Z,35424
2016-12-11T11:39:01.773Z,35744
2016-12-11T11:40:12.926Z,35136
2016-12-11T11:41:24.089Z,32896
2016-12-11T11:42:35.259Z,34784
2016-12-11T11:43:46.438Z,27520
2016-12-11T11:44:57.607Z,25984
2016-12-11T11:46:08.771Z,25856
2016-12-11T11:47:19.912Z,23712
2016-12-11T11:48:31.061Z,22240
2016-12-11T11:49:42.234Z,21632
2016-12-11T11:50:53.374Z,22304
2016-12-11T11:52:04.518Z,26688
2016-12-11T11:53:15.671Z,30368
2016-12-11T11:54:26.797Z,38624
2016-12-11T11:55:37.943Z,36352
2016-12-11T11:56:49.104Z,27904
2016-12-11T11:58:00.291Z,31136
2016-12-11T11:59:13.329Z,35776
2016-12-11T12:00:25.340Z,34144
2016-12-11T12:01:36.514Z,27296
2016-12-11T12:02:47.683Z,24928
2016-12-11T12:03:58.841Z,24704
2016-12-11T12:05:09.976Z,23616
2016-12-11T12:06:21.125Z,25152
2016-12-11T12:07:32.279Z,32576
2016-12-11T12:08:43.433Z,27616
2016-12-11T12:09:54.574Z,29568
2016-12-11T12:11:05.706Z,33536
2016-12-11T12:12:16.844Z,31872
2016-12-11T12:13:28.013Z,25696
2016-12-11T12:14:39.176Z,21280
2016-12-11T12:15:50.355Z,18592
2016-12-11T12:17:01.507Z,18880
2016-12-11T12:18:12.669Z,19008
2016-12-11T12:19:23.823Z,20000
2016-12-11T12:20:35.263Z,21408
2016-12-11T12:21:46.392Z,20544
2016-12-11T12:22:57.585Z,16220
2016-12-11T12:24:08.735Z,18688
2016-12-11T12:25:19.895Z,27168
2016-12-11T12:26:31.081Z,29696
2016-12-11T12:27:42.266Z,35904
2016-12-11T12:28:53.425Z,28192
2016-12-11T12:30:05.165Z,20096
2016-12-11T12:31:16.341Z,19904
2016-12-11T12:32:27.512Z,20512
2016-12-11T12:33:38.676Z,17308
2016-12-11T12:34:49.834Z,18144
2016-12-11T12:36:00.987Z,19072
2016-12-11T12:37:12.144Z,17156
2016-12-11T12:38:23.281Z,24192
2016-12-11T12:39:34.435Z,20416
2016-12-11T12:40:45.582Z,15416
2016-12-11T12:41:56.739Z,16692
2016-12-11T12:43:07.905Z,19136
2016-12-11T12:44:19.057Z,20032
2016-12-11T12:45:30.220Z,16316
2016-12-11T12:46:41.381Z,18688
2016-12-11T12:47:53.109Z,18912
2016-12-11T12:49:04.266Z,17856
2016-12-11T12:50:15.459Z,20992
2016-12-11T12:51:26.636Z,26784
2016-12-11T12:52:37.789Z,28512
2016-12-11T12:53:48.943Z,25472
2016-12-11T12:55:00.093Z,22016
2016-12-11T12:56:11.272Z,22848
2016-12-11T12:57:23.006Z,24800
2016-12-11T12:58:34.131Z,33088
2016-12-11T12:59:46.433Z,35168
2016-12-11T13:00:58.398Z,43360
2016-12-11T13:02:09.530Z,62144
2016-12-11T13:03:20.721Z,65408
2016-12-11T13:04:31.916Z,58848
2016-12-11T13:05:43.060Z,50336
2016-12-11T13:06:54.194Z,39744
2016-12-11T13:08:05.372Z,36224
2016-12-11T13:09:16.540Z,30688
2016-12-11T13:10:27.691Z,31008
2016-12-11T13:11:38.872Z,25984
2016-12-11T13:12:50.039Z,33344
2016-12-11T13:14:01.224Z,26976
2016-12-11T13:15:12.342Z,26752
2016-12-11T13:16:23.471Z,27840
2016-12-11T13:17:34.614Z,34016
2016-12-11T13:18:45.787Z,37056
2016-12-11T13:19:56.940Z,38048
2016-12-11T13:21:08.103Z,33984
2016-12-11T13:22:19.295Z,36320
2016-12-11T13:23:30.467Z,37984
2016-12-11T13:24:41.586Z,48768
2016-12-11T13:25:52.762Z,52992
2016-12-11T13:27:03.888Z,40864
2016-12-11T13:28:15.040Z,37984
2016-12-11T13:29:26.169Z,42336
2016-12-11T13:30:37.334Z,31008
2016-12-11T13:31:48.468Z,26240
2016-12-11T13:33:00.199Z,26272
2016-12-11T13:34:11.373Z,27104
2016-12-11T13:35:22.532Z,23040
2016-12-11T13:36:33.690Z,22432
2016-12-11T13:37:44.852Z,20928
2016-12-11T13:38:56.027Z,21728
2016-12-11T13:40:07.181Z,20448
2016-12-11T13:41:18.361Z,20768
2016-12-11T13:42:29.500Z,18176
2016-12-11T13:43:40.652Z,19936
2016-12-11T13:44:51.819Z,23872
2016-12-11T13:46:02.963Z,25280
2016-12-11T13:47:14.178Z,21152
2016-12-11T13:48:25.355Z,19584
2016-12-11T13:49:36.496Z,20640
2016-12-11T13:50:47.653Z,21088
2016-12-11T13:51:58.795Z,19520
2016-12-11T13:53:09.964Z,21600
2016-12-11T13:54:21.118Z,23840
2016-12-11T13:55:32.250Z,23584
2016-12-11T13:56:43.401Z,23616
2016-12-11T13:57:54.560Z,27488
2016-12-11T13:59:05.734Z,25568
2016-12-11T14:00:17.452Z,25024
2016-12-11T14:01:28.603Z,27136
2016-12-11T14:02:39.754Z,29440
2016-12-11T14:03:50.911Z,28064
2016-12-11T14:05:02.102Z,23648
2016-12-11T14:06:13.280Z,20256
2016-12-11T14:07:24.421Z,18304
2016-12-11T14:08:35.545Z,20256
2016-12-11T14:09:46.738Z,19104
2016-12-11T14:10:57.906Z,18976
2016-12-11T14:12:09.062Z,17148
2016-12-11T14:13:20.221Z,14280
2016-12-11T14:14:31.394Z,17220
2016-12-11T14:15:42.544Z,19584
2016-12-11T14:16:53.675Z,17372
2016-12-11T14:18:04.872Z,19424
2016-12-11T14:19:15.993Z,18976
2016-12-11T14:20:27.133Z,29120
2016-12-11T14:21:38.288Z,38400
2016-12-11T14:22:49.464Z,40224
2016-12-11T14:24:00.622Z,36416
2016-12-11T14:25:11.772Z,30336
2016-12-11T14:26:22.927Z,28384
2016-12-11T14:27:34.082Z,32320
2016-12-11T14:28:45.219Z,37440
2016-12-11T14:29:56.411Z,39744
2016-12-11T14:31:07.567Z,39520
2016-12-11T14:32:18.727Z,32224
2016-12-11T14:33:29.916Z,29248
2016-12-11T14:34:41.086Z,24992
2016-12-11T14:35:52.245Z,32768
2016-12-11T14:37:03.409Z,45408
2016-12-11T14:38:14.583Z,50144
2016-12-11T14:39:25.727Z,59328
2016-12-11T14:40:36.898Z,67040
2016-12-11T14:41:48.045Z,50016
2016-12-11T14:42:59.205Z,51968
2016-12-11T14:44:10.378Z,68672
2016-12-11T14:45:21.526Z,65888
2016-12-11T14:46:32.730Z,53952
2016-12-11T14:47:43.884Z,42720
2016-12-11T14:48:55.047Z,42688
2016-12-11T14:50:06.217Z,68352
2016-12-11T14:51:17.361Z,68448
2016-12-11T14:52:29.069Z,56512
2016-12-11T14:54:20.072Z,91872
2016-12-11T14:55:31.242Z,92768
2016-12-11T14:56:42.400Z,66880
2016-12-11T14:57:53.569Z,89312
2016-12-11T14:59:04.711Z,77472
2016-12-11T15:00:15.852Z,71744
2016-12-11T15:01:27.012Z,67872
2016-12-11T15:02:38.161Z,47456
2016-12-11T15:03:49.325Z,37632
2016-12-11T15:05:01.036Z,41824
2016-12-11T15:06:12.197Z,45856
2016-12-11T15:07:23.372Z,44864
2016-12-11T15:08:34.521Z,49760
2016-12-11T15:09:45.672Z,49600
2016-12-11T15:10:56.810Z,47936
2016-12-11T15:12:08.002Z,45536
2016-12-11T15:13:19.196Z,39136
2016-12-11T15:14:30.345Z,34368
2016-12-11T15:15:41.526Z,40288
2016-12-11T15:16:52.713Z,42240
2016-12-11T15:18:03.898Z,42976
2016-12-11T15:19:15.056Z,56672
2016-12-11T15:20:26.177Z,63712
2016-12-11T15:21:37.321Z,63200
2016-12-11T15:22:48.463Z,70400
2016-12-11T15:23:59.637Z,98880
2016-12-11T15:25:10.802Z,81312
2016-12-11T15:26:21.945Z,98272
2016-12-11T15:27:33.102Z,82144
2016-12-11T15:28:44.249Z,80576
2016-12-11T15:29:55.435Z,80160
2016-12-11T15:31:06.619Z,96928
2016-12-11T15:32:17.765Z,89408
2016-12-11T15:33:28.941Z,80704
2016-12-11T15:34:40.081Z,110880
2016-12-11T15:35:51.281Z,160512
2016-12-11T15:37:02.430Z,69344
2016-12-11T15:38:13.588Z,80192
2016-12-11T15:39:24.735Z,63584
2016-12-11T15:40:35.897Z,68000
2016-12-11T15:41:47.048Z,57728
2016-12-11T15:42:58.761Z,56960
2016-12-11T15:45:11.186Z,72960
2016-12-11T15:46:22.368Z,56032
2016-12-11T15:47:33.540Z,37184
2016-12-11T15:48:44.685Z,32288
2016-12-11T15:49:55.882Z,24256
2016-12-11T15:51:07.044Z,20800
2016-12-11T15:52:18.228Z,26624
2016-12-11T15:53:29.393Z,46624
2016-12-11T15:54:40.542Z,62784
2016-12-11T15:55:51.680Z,53120
2016-12-11T15:57:02.870Z,52224
2016-12-11T15:58:14.042Z,58848
2016-12-11T15:59:25.219Z,51584
2016-12-11T16:00:36.416Z,45728
2016-12-11T16:01:47.570Z,70400
2016-12-11T16:02:58.702Z,77888
2016-12-11T16:04:10.466Z,134848
2016-12-11T16:05:21.596Z,126816
2016-12-11T16:06:32.753Z,131168
2016-12-11T16:07:43.914Z,66784
2016-12-11T16:08:55.114Z,65184
2016-12-11T16:10:06.304Z,65280
2016-12-11T16:11:17.462Z,173696
2016-12-11T16:12:28.621Z,153408
2016-12-11T16:13:39.781Z,155936
2016-12-11T16:14:50.919Z,63648
2016-12-11T16:16:02.624Z,54176
2016-12-11T16:17:13.780Z,56544
2016-12-11T16:18:24.920Z,54272
2016-12-11T16:19:36.103Z,45888
2016-12-11T16:20:47.270Z,39104
2016-12-11T16:21:58.487Z,30528
2016-12-11T16:23:09.637Z,24352
2016-12-11T16:24:20.823Z,21856
2016-12-11T16:25:32.009Z,21184
2016-12-11T16:26:43.166Z,22112
2016-12-11T16:27:54.336Z,22368
2016-12-11T16:29:05.516Z,24256
2016-12-11T16:30:16.690Z,25056
2016-12-11T16:31:28.422Z,24000
2016-12-11T16:32:39.587Z,20224
2016-12-11T16:33:50.748Z,19104
2016-12-11T16:35:01.906Z,18528
2016-12-11T16:36:13.087Z,16680
2016-12-11T16:37:32.859Z,13980
2016-12-11T16:38:44.006Z,11172
2016-12-11T16:39:55.153Z,8216
2016-12-11T16:41:06.284Z,5376
2016-12-11T16:42:18.009Z,3512
2016-12-11T16:43:29.176Z,2940
2016-12-11T16:44:40.359Z,3480
2016-12-11T16:45:51.508Z,4416
2016-12-11T16:47:02.669Z,5172
2016-12-11T16:48:13.843Z,5424
2016-12-11T16:49:25.016Z,5708
2016-12-11T16:50:36.173Z,6312
2016-12-11T16:51:47.313Z,6844
2016-12-11T16:52:58.461Z,7084
2016-12-11T16:54:09.611Z,7260
2016-12-11T16:55:20.769Z,7472
2016-12-11T16:56:31.912Z,8036
2016-12-11T16:57:43.044Z,8608
2016-12-11T16:58:54.754Z,8784
2016-12-11T17:00:05.909Z,8472
2016-12-11T19:56:57.873Z,13332
2016-12-11T19:58:09.044Z,12816
2016-12-11T19:59:20.202Z,12224
2016-12-11T20:00:31.388Z,11996
2016-12-11T20:01:42.539Z,11980
2016-12-11T20:02:53.690Z,11716
2016-12-11T20:04:04.845Z,11760
2016-12-11T20:05:16.053Z,11772
2016-12-11T20:06:27.207Z,11548
2016-12-11T20:07:38.368Z,11132
2016-12-11T20:08:49.522Z,10472
2016-12-11T20:10:00.679Z,9904
2016-12-11T20:11:11.837Z,9472
2016-12-11T20:12:22.989Z,9148
2016-12-11T20:13:34.732Z,9004
2016-12-11T20:14:45.946Z,8912
2016-12-11T20:15:57.091Z,8736
2016-12-11T20:17:08.251Z,8592
2016-12-11T20:18:19.408Z,8496
2016-12-11T20:19:31.130Z,8532
2016-12-11T20:20:42.287Z,8624
2016-12-11T20:21:53.445Z,8812
2016-12-11T20:23:07.791Z,9100
2016-12-11T20:24:19.190Z,9448
2016-12-11T20:25:30.348Z,9904
2016-12-11T20:26:41.503Z,10576
2016-12-11T20:27:52.669Z,11428
2016-12-11T20:29:03.827Z,12252
2016-12-11T20:30:15.004Z,10924
2016-12-11T20:31:26.159Z,10700
2016-12-11T20:32:37.350Z,10736
2016-12-11T20:33:48.550Z,11192
2016-12-11T20:34:59.699Z,10944
2016-12-11T20:36:10.861Z,11152
2016-12-11T20:37:22.009Z,11352
2016-12-11T20:38:36.936Z,11520
2016-12-11T20:39:49.302Z,11552
2016-12-11T20:41:00.425Z,11424
2016-12-11T20:42:11.560Z,11728
2016-12-11T20:43:22.712Z,12044
2016-12-11T20:44:33.847Z,11772
2016-12-11T20:45:45.008Z,10192
2016-12-11T20:46:56.202Z,11592
2016-12-11T20:48:07.352Z,9352
2016-12-11T20:49:18.479Z,10172
2016-12-11T20:50:29.623Z,7316
2016-12-11T20:51:40.790Z,6364
2016-12-11T20:52:51.938Z,5832
2016-12-11T20:54:03.112Z,5328
2016-12-11T20:55:14.275Z,4972
2016-12-11T20:56:25.428Z,4704
2016-12-11T20:57:36.567Z,4496
2016-12-11T20:58:47.692Z,4324
2016-12-11T20:59:58.838Z,4156
2016-12-11T21:01:10.567Z,3960
2016-12-11T21:02:21.718Z,3776
2016-12-11T21:03:32.881Z,3620
2016-12-11T21:04:44.041Z,3536
2016-12-11T21:05:55.211Z,3476
2016-12-11T21:07:06.326Z,3416
2016-12-11T21:08:17.497Z,3364
2016-12-11T21:09:28.613Z,3300
2016-12-11T21:10:39.765Z,3144
2016-12-11T21:11:50.899Z,2928
2016-12-11T21:13:02.056Z,2692
2016-12-11T21:14:13.198Z,2472
2016-12-11T21:15:24.359Z,2280
2016-12-11T21:16:35.529Z,2108
2016-12-11T21:17:47.244Z,1900
2016-12-11T21:18:58.409Z,1720
2016-12-11T21:20:09.557Z,1592
2016-12-11T21:21:20.734Z,1480
2016-12-11T21:22:31.899Z,1392
2016-12-11T21:23:43.075Z,1308
2016-12-11T21:24:54.206Z,1244
2016-12-11T21:26:05.352Z,1184
2016-12-11T21:27:16.495Z,1148
2016-12-11T21:28:27.650Z,1116
2016-12-11T21:29:38.859Z,1084
2016-12-11T21:30:50.028Z,1028
2016-12-11T21:32:01.179Z,980
2016-12-11T21:33:12.898Z,944
2016-12-11T21:34:24.052Z,892
2016-12-11T21:35:35.219Z,828
2016-12-11T21:36:46.363Z,760
2016-12-11T21:37:57.493Z,688
2016-12-11T21:39:08.648Z,620
2016-12-11T21:40:19.804Z,552
2016-12-11T21:41:30.999Z,488
2016-12-11T21:42:42.160Z,428
2016-12-11T21:43:53.310Z,372
2016-12-11T21:45:04.461Z,316
2016-12-11T21:46:15.613Z,268
2016-12-11T21:47:26.805Z,232
2016-12-11T21:48:37.984Z,200
2016-12-11T21:49:49.117Z,168
2016-12-11T21:51:00.238Z,144
2016-12-11T21:52:11.438Z,120
2016-12-11T21:53:22.604Z,100
2016-12-11T21:54:33.758Z,80
2016-12-11T21:55:44.912Z,64
2016-12-11T21:56:56.083Z,48
2016-12-11T21:58:07.229Z,36
2016-12-11T21:59:18.355Z,28
2016-12-11T22:00:29.521Z,20
2016-12-11T22:01:40.637Z,16
2016-12-11T22:02:51.804Z,12
2016-12-11T22:04:02.958Z,8
2016-12-11T22:05:14.110Z,4
2016-12-11T22:06:25.258Z,4
2016-12-11T22:07:36.407Z,4
2016-12-11T22:08:47.562Z,0
2016-12-11T22:09:58.719Z,0
2016-12-11T22:11:09.876Z,0
2016-12-11T22:12:21.037Z,0
2016-12-11T22:13:32.189Z,0
2016-12-11T22:14:43.345Z,0
2016-12-11T22:15:54.540Z,0
2016-12-11T22:17:05.710Z,0
2016-12-11T22:18:16.878Z,0
2016-12-11T22:19:28.039Z,0
2016-12-11T22:20:39.201Z,0
2016-12-11T22:21:50.355Z,0
2016-12-11T22:23:01.520Z,0
2016-12-11T22:24:12.670Z,0
2016-12-11T22:25:23.823Z,0
2016-12-11T22:26:34.992Z,0
2016-12-11T22:27:46.136Z,0
2016-12-11T22:28:57.334Z,0
2016-12-11T22:30:08.483Z,0
2016-12-11T22:31:19.639Z,0
2016-12-11T22:32:30.804Z,0
2016-12-11T22:33:41.938Z,0
2016-12-11T22:34:53.075Z,0
2016-12-11T22:36:04.221Z,0
2016-12-11T22:37:15.389Z,0
2016-12-11T22:38:26.534Z,0
2016-12-11T22:39:37.690Z,0
2016-12-11T22:40:48.818Z,0
2016-12-11T22:41:59.950Z,0
2016-12-11T22:43:11.102Z,0
2016-12-11T22:44:22.244Z,0
2016-12-11T22:45:33.406Z,0
2016-12-11T22:46:44.545Z,0
2016-12-11T22:47:55.698Z,0
2016-12-11T22:49:06.864Z,0
2016-12-11T22:50:18.004Z,0
2016-12-11T22:51:29.148Z,0
2016-12-11T22:52:40.829Z,0
2016-12-11T22:53:52.009Z,0
2016-12-11T22:55:03.186Z,0
2016-12-11T22:56:14.334Z,0
2016-12-11T22:57:25.503Z,0
2016-12-11T22:58:36.677Z,0
2016-12-11T22:59:47.849Z,0
2016-12-11T23:00:58.999Z,0
2016-12-11T23:02:10.143Z,0
2016-12-11T23:03:21.303Z,0
2016-12-11T23:04:32.445Z,0
2016-12-11T23:05:43.611Z,0
2016-12-11T23:06:54.761Z,0
2016-12-11T23:08:05.900Z,0
2016-12-11T23:09:17.049Z,0
2016-12-11T23:10:28.184Z,0
2016-12-11T23:11:39.375Z,0
2016-12-11T23:12:51.103Z,0
2016-12-11T23:14:02.241Z,0
2016-12-11T23:15:13.395Z,0
2016-12-11T23:16:24.530Z,0
2016-12-11T23:17:35.716Z,0
2016-12-11T23:18:46.852Z,0
2016-12-11T23:19:58.006Z,0
2016-12-11T23:21:09.139Z,0
2016-12-11T23:22:20.289Z,0
2016-12-11T23:23:31.428Z,0
2016-12-11T23:24:42.567Z,0
2016-12-11T23:25:53.712Z,0
2016-12-11T23:27:04.862Z,0
2016-12-11T23:28:16.031Z,0
2016-12-11T23:29:27.181Z,0
2016-12-11T23:30:38.315Z,0
2016-12-11T23:31:49.454Z,0
2016-12-11T23:33:00.601Z,0
2016-12-11T23:34:11.740Z,0
2016-12-11T23:35:22.917Z,0
2016-12-11T23:36:34.083Z,0
2016-12-11T23:37:45.228Z,0
2016-12-11T23:38:56.367Z,0
2016-12-11T23:40:07.532Z,0
2016-12-11T23:41:18.685Z,0
2016-12-11T23:42:29.837Z,0
2016-12-11T23:43:40.974Z,0
2016-12-11T23:44:52.125Z,0
2016-12-11T23:46:03.298Z,0
2016-12-11T23:47:14.459Z,0
2016-12-11T23:48:25.606Z,0
2016-12-11T23:49:36.767Z,0
2016-12-11T23:50:47.909Z,0
2016-12-11T23:51:59.063Z,0
2016-12-11T23:53:10.225Z,0
2016-12-11T23:54:21.366Z,0
2016-12-11T23:55:32.489Z,0
2016-12-11T23:56:43.642Z,0
2016-12-11T23:57:54.782Z,0
2016-12-11T23:59:05.921Z,0
